createdAt,value
2023-03-26T00:00:26.556Z,72768.06
2023-03-26T00:00:59.054Z,72774.03
2023-03-26T00:01:36.697Z,72768.06
2023-03-26T00:02:09.255Z,72770.06
2023-03-26T00:02:42.000Z,72770.06
2023-03-26T00:03:18.208Z,72768.06
2023-03-26T00:03:53.915Z,72766.06
2023-03-26T00:04:26.319Z,72770.06
2023-03-26T00:05:01.252Z,72768.06
2023-03-26T00:05:33.606Z,72770.06
2023-03-26T00:06:08.403Z,72768.06
2023-03-26T00:06:43.384Z,72772.03
2023-03-26T00:07:16.274Z,72770.06
2023-03-26T00:07:48.885Z,72766.06
2023-03-26T00:08:22.389Z,72770.06
2023-03-26T00:08:58.764Z,72766.06
2023-03-26T00:09:31.201Z,72768.06
2023-03-26T00:10:04.204Z,72768.06
2023-03-26T00:10:39.399Z,72766.06
2023-03-26T00:11:13.387Z,72770.06
2023-03-26T00:11:46.496Z,72774.03
2023-03-26T00:12:21.642Z,72770.06
2023-03-26T00:12:53.962Z,72770.06
2023-03-26T00:13:26.353Z,72774.03
2023-03-26T00:14:04.085Z,72774.03
2023-03-26T00:14:36.437Z,72770.06
2023-03-26T00:15:10.698Z,72768.06
2023-03-26T00:15:45.651Z,72770.06
2023-03-26T00:16:19.976Z,72774.03
2023-03-26T00:16:55.117Z,72770.06
2023-03-26T00:17:27.528Z,72768.06
2023-03-26T00:18:00.863Z,72768.06
2023-03-26T00:18:35.203Z,72766.06
2023-03-26T00:19:10.250Z,72770.06
2023-03-26T00:19:43.295Z,72764.06
2023-03-26T00:20:15.757Z,72766.06
2023-03-26T00:20:50.832Z,72758.06
2023-03-26T00:21:28.015Z,72764.06
2023-03-26T00:22:04.023Z,72760.06
2023-03-26T00:22:36.368Z,72766.06
2023-03-26T00:23:09.058Z,72762.06
2023-03-26T00:23:44.409Z,72766.06
2023-03-26T00:24:17.619Z,72766.06
2023-03-26T00:24:51.015Z,72764.06
2023-03-26T00:25:26.612Z,72760.06
2023-03-26T00:25:59.087Z,72764.06
2023-03-26T00:26:32.001Z,72766.06
2023-03-26T00:27:09.001Z,72762.06
2023-03-26T00:27:41.998Z,72762.06
2023-03-26T00:28:17.328Z,72762.06
2023-03-26T00:28:52.266Z,72770.06
2023-03-26T00:29:28.250Z,72764.06
2023-03-26T00:30:01.119Z,72766.06
2023-03-26T00:30:36.669Z,72762.06
2023-03-26T00:31:11.465Z,72762.06
2023-03-26T00:31:46.647Z,72766.06
2023-03-26T00:32:21.722Z,72766.06
2023-03-26T00:32:54.165Z,72766.06
2023-03-26T00:33:26.974Z,72768.06
2023-03-26T00:34:03.926Z,72766.06
2023-03-26T00:34:36.363Z,72766.06
2023-03-26T00:35:09.948Z,72768.06
2023-03-26T00:35:47.480Z,72770.06
2023-03-26T00:36:20.256Z,72770.06
2023-03-26T00:36:55.000Z,72766.06
2023-03-26T00:37:30.559Z,72762.06
2023-03-26T00:38:02.933Z,72762.06
2023-03-26T00:38:39.183Z,72762.06
2023-03-26T00:39:14.354Z,72762.06
2023-03-26T00:39:49.321Z,72764.06
2023-03-26T00:40:23.663Z,72762.06
2023-03-26T00:40:59.472Z,72764.06
2023-03-26T00:41:32.186Z,72766.06
2023-03-26T00:42:08.394Z,72762.06
2023-03-26T00:42:43.327Z,72766.06
2023-03-26T00:43:19.220Z,72762.06
2023-03-26T00:43:56.567Z,72770.06
2023-03-26T00:44:31.961Z,72764.06
2023-03-26T00:45:04.859Z,72766.06
2023-03-26T00:45:39.838Z,72762.06
2023-03-26T00:46:13.452Z,72766.06
2023-03-26T00:46:48.556Z,72764.06
2023-03-26T00:47:21.320Z,72764.06
2023-03-26T00:47:53.703Z,72768.06
2023-03-26T00:48:42.240Z,72766.06
2023-03-26T00:49:17.173Z,72766.06
2023-03-26T00:49:52.095Z,72762.06
2023-03-26T00:50:24.424Z,72762.06
2023-03-26T00:50:57.395Z,72764.06
2023-03-26T00:51:34.264Z,72766.06
2023-03-26T00:52:08.874Z,72768.06
2023-03-26T00:52:42.481Z,72766.06
2023-03-26T00:53:20.241Z,72774.03
2023-03-26T00:53:52.732Z,72770.06
2023-03-26T00:54:25.066Z,72766.06
2023-03-26T00:55:00.014Z,72770.06
2023-03-26T00:55:32.409Z,72766.06
2023-03-26T00:56:05.946Z,72766.06
2023-03-26T00:56:40.989Z,72766.06
2023-03-26T00:57:20.193Z,72766.06
2023-03-26T00:58:00.699Z,72768.06
2023-03-26T00:58:33.710Z,72770.06
2023-03-26T00:59:06.089Z,72766.06
2023-03-26T00:59:43.962Z,72766.06
2023-03-26T01:00:19.639Z,72766.06
2023-03-26T01:00:57.454Z,72766.06
2023-03-26T01:01:32.758Z,72766.06
2023-03-26T01:02:05.496Z,72766.06
2023-03-26T01:02:38.279Z,72768.06
2023-03-26T01:03:26.679Z,72766.06
2023-03-26T01:04:28.609Z,72770.06
2023-03-26T01:05:04.293Z,72762.06
2023-03-26T01:05:44.391Z,72762.06
2023-03-26T01:06:27.965Z,72762.06
2023-03-26T01:07:03.017Z,72762.06
2023-03-26T01:07:35.415Z,72766.06
2023-03-26T01:08:18.178Z,72764.06
2023-03-26T01:08:51.365Z,72764.06
2023-03-26T01:09:28.193Z,72762.06
2023-03-26T01:10:03.214Z,72768.06
2023-03-26T01:10:39.015Z,72766.06
2023-03-26T01:11:15.520Z,72766.06
2023-03-26T01:11:51.144Z,72762.06
2023-03-26T01:12:29.145Z,72764.06
2023-03-26T01:13:01.485Z,72760.06
2023-03-26T01:13:38.675Z,72766.06
2023-03-26T01:14:12.818Z,72766.06
2023-03-26T01:14:52.572Z,72766.06
2023-03-26T01:15:30.119Z,72762.06
2023-03-26T01:16:02.727Z,72760.06
2023-03-26T01:16:41.732Z,72762.06
2023-03-26T01:17:14.246Z,72762.06
2023-03-26T01:17:46.945Z,72764.06
2023-03-26T01:18:30.002Z,72762.06
2023-03-26T01:19:02.407Z,72766.06
2023-03-26T01:19:42.427Z,72758.06
2023-03-26T01:20:19.793Z,72764.06
2023-03-26T01:20:58.697Z,72758.06
2023-03-26T01:21:34.706Z,72762.06
2023-03-26T01:22:11.322Z,72762.06
2023-03-26T01:22:46.918Z,72758.06
2023-03-26T01:23:26.545Z,72758.06
2023-03-26T01:24:03.216Z,72750.09
2023-03-26T01:24:36.322Z,72750.09
2023-03-26T01:25:12.504Z,72750.09
2023-03-26T01:25:49.950Z,72748.09
2023-03-26T01:26:32.505Z,72750.09
2023-03-26T01:27:14.843Z,72758.06
2023-03-26T01:27:49.278Z,72752.09
2023-03-26T01:28:22.181Z,72758.06
2023-03-26T01:28:57.434Z,72746.09
2023-03-26T01:29:37.779Z,72748.09
2023-03-26T01:30:14.876Z,72750.09
2023-03-26T01:30:52.520Z,72746.09
2023-03-26T01:31:37.275Z,72750.09
2023-03-26T01:32:31.655Z,72748.09
2023-03-26T01:33:14.137Z,72746.09
2023-03-26T01:33:51.696Z,72738.13
2023-03-26T01:34:30.884Z,72742.09
2023-03-26T01:35:14.274Z,72742.09
2023-03-26T01:35:51.757Z,72746.09
2023-03-26T01:36:29.729Z,72742.09
2023-03-26T01:37:15.329Z,72742.09
2023-03-26T01:37:58.918Z,72742.09
2023-03-26T01:38:37.762Z,72740.09
2023-03-26T01:39:18.887Z,72740.09
2023-03-26T01:39:54.514Z,72742.09
2023-03-26T01:40:38.855Z,72742.09
2023-03-26T01:41:12.846Z,72738.13
2023-03-26T01:41:46.074Z,72738.13
2023-03-26T01:42:24.938Z,72738.13
2023-03-26T01:43:00.940Z,72742.09
2023-03-26T01:43:40.449Z,72742.09
2023-03-26T01:44:18.904Z,72740.09
2023-03-26T01:44:57.929Z,72746.09
2023-03-26T01:45:33.405Z,72742.09
2023-03-26T01:46:08.351Z,72750.09
2023-03-26T01:46:43.987Z,72752.09
2023-03-26T01:47:17.018Z,72746.09
2023-03-26T01:47:50.026Z,72750.09
2023-03-26T01:48:33.373Z,72746.09
2023-03-26T01:49:06.788Z,72746.09
2023-03-26T01:49:39.215Z,72744.09
2023-03-26T01:50:14.290Z,72742.09
2023-03-26T01:50:51.522Z,72742.09
2023-03-26T01:51:28.495Z,72742.09
2023-03-26T01:52:03.852Z,72738.13
2023-03-26T01:52:36.252Z,72738.13
2023-03-26T01:53:09.569Z,72738.13
2023-03-26T01:53:47.101Z,72738.13
2023-03-26T01:54:25.202Z,72738.13
2023-03-26T01:54:57.832Z,72736.13
2023-03-26T01:55:43.742Z,72738.13
2023-03-26T01:56:20.284Z,72738.13
2023-03-26T01:57:02.811Z,72738.13
2023-03-26T01:57:43.567Z,72740.09
2023-03-26T01:58:22.864Z,72742.09
2023-03-26T01:59:08.388Z,72736.13
2023-03-26T01:59:56.006Z,72734.13
2023-03-26T02:00:31.015Z,72728.13
2023-03-26T02:01:14.265Z,72726.13
2023-03-26T02:01:55.098Z,72730.13
2023-03-26T02:02:32.256Z,72734.13
2023-03-26T02:03:23.497Z,72730.13
2023-03-26T02:04:00.163Z,72730.13
2023-03-26T02:04:37.868Z,72726.13
2023-03-26T02:05:17.974Z,72722.16
2023-03-26T02:05:54.078Z,72726.13
2023-03-26T02:06:30.880Z,72722.16
2023-03-26T02:07:10.791Z,72726.13
2023-03-26T02:07:45.586Z,72722.16
2023-03-26T02:08:23.005Z,72724.13
2023-03-26T02:09:01.701Z,72722.16
2023-03-26T02:09:46.074Z,72726.13
2023-03-26T02:10:22.480Z,72722.16
2023-03-26T02:11:00.582Z,72728.13
2023-03-26T02:11:35.876Z,72726.13
2023-03-26T02:12:09.112Z,72730.13
2023-03-26T02:12:44.649Z,72726.13
2023-03-26T02:13:17.133Z,72722.16
2023-03-26T02:13:49.978Z,72718.16
2023-03-26T02:14:24.988Z,72726.13
2023-03-26T02:14:59.686Z,72722.16
2023-03-26T02:15:32.047Z,72718.16
2023-03-26T02:16:11.845Z,72722.16
2023-03-26T02:16:47.242Z,72722.16
2023-03-26T02:17:24.516Z,72720.16
2023-03-26T02:18:00.012Z,72716.16
2023-03-26T02:18:36.942Z,72718.16
2023-03-26T02:19:15.962Z,72718.16
2023-03-26T02:19:51.678Z,72722.16
2023-03-26T02:20:24.007Z,72714.16
2023-03-26T02:20:56.371Z,72716.16
2023-03-26T02:21:34.294Z,72718.16
2023-03-26T02:22:11.219Z,72714.16
2023-03-26T02:22:46.156Z,72714.16
2023-03-26T02:23:23.823Z,72718.16
2023-03-26T02:24:03.161Z,72714.16
2023-03-26T02:24:43.246Z,72718.16
2023-03-26T02:25:18.605Z,72714.16
2023-03-26T02:25:52.019Z,72714.16
2023-03-26T02:26:28.184Z,72718.16
2023-03-26T02:27:12.507Z,72714.16
2023-03-26T02:27:49.734Z,72718.16
2023-03-26T02:28:22.662Z,72718.16
2023-03-26T02:28:55.167Z,72718.16
2023-03-26T02:29:30.270Z,72710.16
2023-03-26T02:30:03.682Z,72714.16
2023-03-26T02:30:36.050Z,72710.16
2023-03-26T02:31:14.038Z,72710.16
2023-03-26T02:31:47.389Z,72710.16
2023-03-26T02:32:22.419Z,72706.19
2023-03-26T02:32:54.906Z,72710.16
2023-03-26T02:33:29.186Z,72706.19
2023-03-26T02:34:04.429Z,72706.19
2023-03-26T02:34:39.704Z,72706.19
2023-03-26T02:35:13.095Z,72706.19
2023-03-26T02:35:48.225Z,72706.19
2023-03-26T02:36:24.462Z,72702.19
2023-03-26T02:36:58.067Z,72708.19
2023-03-26T02:37:35.013Z,72704.19
2023-03-26T02:38:15.630Z,72704.19
2023-03-26T02:38:48.380Z,72702.19
2023-03-26T02:39:23.441Z,72702.19
2023-03-26T02:40:11.486Z,72702.19
2023-03-26T02:40:49.234Z,72694.19
2023-03-26T02:41:22.070Z,72698.19
2023-03-26T02:42:05.458Z,72696.19
2023-03-26T02:42:47.504Z,72694.19
2023-03-26T02:43:20.214Z,72698.19
2023-03-26T02:43:52.557Z,72694.19
2023-03-26T02:44:31.026Z,72694.19
2023-03-26T02:45:03.738Z,72700.19
2023-03-26T02:46:17.170Z,72698.19
2023-03-26T02:47:09.806Z,72690.22
2023-03-26T02:47:43.603Z,72694.19
2023-03-26T02:48:54.031Z,72694.19
2023-03-26T02:49:30.759Z,72690.22
2023-03-26T02:50:04.755Z,72692.22
2023-03-26T02:50:59.215Z,72690.22
2023-03-26T02:51:35.066Z,72694.19
2023-03-26T02:52:21.833Z,72692.22
2023-03-26T02:52:58.734Z,72690.22
2023-03-26T02:53:33.041Z,72692.22
2023-03-26T02:54:27.222Z,72690.22
2023-03-26T02:55:09.744Z,72690.22
2023-03-26T02:55:43.940Z,72694.19
2023-03-26T02:56:20.091Z,72690.22
2023-03-26T02:57:06.290Z,72690.22
2023-03-26T02:58:00.140Z,72694.19
2023-03-26T02:58:39.643Z,72692.22
2023-03-26T02:59:12.663Z,72694.19
2023-03-26T02:59:50.570Z,72682.22
2023-03-26T03:00:47.459Z,72686.22
2023-03-26T03:01:43.040Z,72678.22
2023-03-26T03:02:18.520Z,72684.22
2023-03-26T03:02:54.384Z,72680.22
2023-03-26T03:03:38.179Z,72680.22
2023-03-26T03:04:28.928Z,72678.22
2023-03-26T03:05:01.942Z,72676.25
2023-03-26T03:05:46.137Z,72674.25
2023-03-26T03:06:34.396Z,72678.22
2023-03-26T03:07:07.924Z,72680.22
2023-03-26T03:07:43.174Z,72676.25
2023-03-26T03:08:18.599Z,72682.22
2023-03-26T03:09:20.142Z,72678.22
2023-03-26T03:10:22.126Z,72680.22
2023-03-26T03:11:10.498Z,72682.22
2023-03-26T03:11:48.244Z,72684.22
2023-03-26T03:12:23.190Z,72682.22
2023-03-26T03:12:55.593Z,72678.22
2023-03-26T03:13:28.117Z,72680.22
2023-03-26T03:14:03.191Z,72680.22
2023-03-26T03:14:37.975Z,72678.22
2023-03-26T03:15:12.290Z,72678.22
2023-03-26T03:15:47.411Z,72680.22
2023-03-26T03:16:20.386Z,72682.22
2023-03-26T03:16:54.027Z,72682.22
2023-03-26T03:17:31.034Z,72686.22
2023-03-26T03:18:03.684Z,72682.22
2023-03-26T03:18:38.278Z,72686.22
2023-03-26T03:19:13.501Z,72682.22
2023-03-26T03:19:46.086Z,72686.22
2023-03-26T03:20:19.774Z,72688.22
2023-03-26T03:20:54.801Z,72682.22
2023-03-26T03:21:28.510Z,72680.22
2023-03-26T03:22:01.009Z,72682.22
2023-03-26T03:22:36.358Z,72682.22
2023-03-26T03:23:08.798Z,72674.25
2023-03-26T03:23:41.375Z,72678.22
2023-03-26T03:24:21.742Z,72682.22
2023-03-26T03:24:57.873Z,72680.22
2023-03-26T03:25:33.987Z,72682.22
2023-03-26T03:26:15.791Z,72678.22
2023-03-26T03:26:55.259Z,72682.22
2023-03-26T03:27:50.491Z,72682.22
2023-03-26T03:28:23.658Z,72682.22
2023-03-26T03:28:56.698Z,72674.25
2023-03-26T03:29:32.376Z,72678.22
2023-03-26T03:30:19.137Z,72680.22
2023-03-26T03:30:53.494Z,72678.22
2023-03-26T03:31:37.103Z,72674.25
2023-03-26T03:32:13.813Z,72676.25
2023-03-26T03:32:50.843Z,72678.22
2023-03-26T03:33:30.955Z,72674.25
2023-03-26T03:34:03.417Z,72680.22
2023-03-26T03:34:39.663Z,72678.22
2023-03-26T03:35:15.171Z,72674.25
2023-03-26T03:35:50.969Z,72672.25
2023-03-26T03:36:28.118Z,72676.25
2023-03-26T03:37:07.894Z,72670.25
2023-03-26T03:37:55.238Z,72670.25
2023-03-26T03:38:30.291Z,72668.25
2023-03-26T03:39:03.053Z,72674.25
2023-03-26T03:39:37.101Z,72670.25
2023-03-26T03:40:13.748Z,72670.25
2023-03-26T03:40:49.252Z,72666.25
2023-03-26T03:41:22.559Z,72666.25
2023-03-26T03:41:57.505Z,72670.25
2023-03-26T03:42:29.867Z,72670.25
2023-03-26T03:43:06.129Z,72666.25
2023-03-26T03:43:50.299Z,72666.25
2023-03-26T03:44:29.323Z,72666.25
2023-03-26T03:45:02.398Z,72666.25
2023-03-26T03:46:07.392Z,72668.25
2023-03-26T03:46:43.491Z,72670.25
2023-03-26T03:47:15.966Z,72662.28
2023-03-26T03:47:51.025Z,72670.25
2023-03-26T03:48:29.997Z,72670.25
2023-03-26T03:49:03.414Z,72662.28
2023-03-26T03:49:43.183Z,72662.28
2023-03-26T03:50:15.852Z,72658.28
2023-03-26T03:51:03.701Z,72660.28
2023-03-26T03:51:51.743Z,72654.28
2023-03-26T03:52:33.739Z,72658.28
2023-03-26T03:53:08.961Z,72654.28
2023-03-26T03:53:41.689Z,72654.28
2023-03-26T03:54:15.627Z,72644.31
2023-03-26T03:54:53.381Z,72648.28
2023-03-26T03:55:42.204Z,72648.28
2023-03-26T03:56:19.428Z,72646.31
2023-03-26T03:57:16.199Z,72646.31
2023-03-26T03:57:58.680Z,72646.31
2023-03-26T03:58:31.531Z,72648.28
2023-03-26T03:59:15.811Z,72646.31
2023-03-26T03:59:49.405Z,72646.31
2023-03-26T04:00:24.511Z,72648.28
2023-03-26T04:01:23.023Z,72644.31
2023-03-26T04:02:06.576Z,72644.31
2023-03-26T04:02:50.889Z,72646.31
2023-03-26T04:03:34.362Z,72646.31
2023-03-26T04:04:11.065Z,72640.31
2023-03-26T04:05:02.321Z,72648.28
2023-03-26T04:05:34.820Z,72648.28
2023-03-26T04:06:07.750Z,72648.28
2023-03-26T04:06:42.838Z,72646.31
2023-03-26T04:07:17.410Z,72648.28
2023-03-26T04:08:11.088Z,72646.31
2023-03-26T04:08:50.089Z,72646.31
2023-03-26T04:09:25.206Z,72648.28
2023-03-26T04:10:03.098Z,72650.28
2023-03-26T04:10:53.835Z,72646.31
2023-03-26T04:11:51.579Z,72646.31
2023-03-26T04:12:49.826Z,72650.28
2023-03-26T04:13:23.859Z,72646.31
2023-03-26T04:14:27.361Z,72642.31
2023-03-26T04:15:09.366Z,72650.28
2023-03-26T04:15:43.504Z,72644.31
2023-03-26T04:16:19.092Z,72648.28
2023-03-26T04:16:55.202Z,72646.31
2023-03-26T04:17:30.731Z,72638.31
2023-03-26T04:18:10.538Z,72646.31
2023-03-26T04:18:46.610Z,72638.31
2023-03-26T04:19:20.524Z,72638.31
2023-03-26T04:19:55.818Z,72638.31
2023-03-26T04:20:34.143Z,72642.31
2023-03-26T04:21:07.810Z,72638.31
2023-03-26T04:21:43.035Z,72634.31
2023-03-26T04:22:18.450Z,72638.31
2023-03-26T04:22:59.940Z,72634.31
2023-03-26T04:23:35.891Z,72634.31
2023-03-26T04:24:22.621Z,72634.31
2023-03-26T04:25:15.748Z,72630.34
2023-03-26T04:26:07.631Z,72630.34
2023-03-26T04:27:13.896Z,72630.34
2023-03-26T04:27:50.725Z,72626.34
2023-03-26T04:28:46.561Z,72630.34
2023-03-26T04:29:28.145Z,72630.34
2023-03-26T04:30:02.267Z,72628.34
2023-03-26T04:30:35.546Z,72626.34
2023-03-26T04:31:29.641Z,72622.34
2023-03-26T04:32:06.847Z,72624.34
2023-03-26T04:32:40.633Z,72626.34
2023-03-26T04:33:17.293Z,72630.34
2023-03-26T04:33:54.521Z,72624.34
2023-03-26T04:34:31.227Z,72620.34
2023-03-26T04:35:17.269Z,72622.34
2023-03-26T04:35:55.228Z,72618.34
2023-03-26T04:36:32.308Z,72616.38
2023-03-26T04:37:05.236Z,72622.34
2023-03-26T04:37:46.221Z,72614.38
2023-03-26T04:38:44.793Z,72616.38
2023-03-26T04:39:18.494Z,72618.34
2023-03-26T04:40:24.315Z,72614.38
2023-03-26T04:41:07.899Z,72618.34
2023-03-26T04:41:50.481Z,72610.38
2023-03-26T04:42:28.932Z,72610.38
2023-03-26T04:43:18.220Z,72608.38
2023-03-26T04:44:14.500Z,72610.38
2023-03-26T04:44:59.914Z,72610.38
2023-03-26T04:45:35.915Z,72608.38
2023-03-26T04:46:08.449Z,72610.38
2023-03-26T04:46:49.032Z,72608.38
2023-03-26T04:47:37.267Z,72604.38
2023-03-26T04:48:15.908Z,72610.38
2023-03-26T04:48:48.413Z,72612.38
2023-03-26T04:49:20.921Z,72610.38
2023-03-26T04:49:56.150Z,72606.38
2023-03-26T04:50:28.686Z,72604.38
2023-03-26T04:51:01.577Z,72606.38
2023-03-26T04:51:42.191Z,72606.38
2023-03-26T04:52:45.301Z,72610.38
2023-03-26T04:53:55.478Z,72606.38
2023-03-26T04:54:37.614Z,72602.38
2023-03-26T04:55:24.653Z,72606.38
2023-03-26T04:56:09.299Z,72606.38
2023-03-26T04:57:06.784Z,72606.38
2023-03-26T04:57:56.404Z,72604.38
2023-03-26T04:58:52.029Z,72600.41
2023-03-26T04:59:31.687Z,72600.41
2023-03-26T05:00:09.229Z,72598.41
2023-03-26T05:00:44.611Z,72596.41
2023-03-26T05:01:18.195Z,72594.41
2023-03-26T05:01:52.076Z,72596.41
2023-03-26T05:02:27.734Z,72594.41
2023-03-26T05:03:01.853Z,72592.41
2023-03-26T05:03:34.452Z,72588.41
2023-03-26T05:04:16.163Z,72596.41
2023-03-26T05:04:50.155Z,72596.41
2023-03-26T05:05:24.159Z,72596.41
2023-03-26T05:05:59.133Z,72598.41
2023-03-26T05:06:34.621Z,72596.41
2023-03-26T05:07:17.854Z,72594.41
2023-03-26T05:07:56.548Z,72598.41
2023-03-26T05:08:29.748Z,72600.41
2023-03-26T05:09:02.285Z,72598.41
2023-03-26T05:09:57.717Z,72596.41
2023-03-26T05:10:52.314Z,72596.41
2023-03-26T05:11:34.635Z,72594.41
2023-03-26T05:12:07.309Z,72594.41
2023-03-26T05:12:52.974Z,72590.41
2023-03-26T05:13:37.653Z,72588.41
2023-03-26T05:14:14.995Z,72588.41
2023-03-26T05:14:47.739Z,72584.44
2023-03-26T05:15:30.170Z,72582.44
2023-03-26T05:16:03.578Z,72584.44
2023-03-26T05:16:44.946Z,72586.44
2023-03-26T05:17:23.832Z,72586.44
2023-03-26T05:17:59.260Z,72586.44
2023-03-26T05:18:42.714Z,72584.44
2023-03-26T05:19:15.482Z,72586.44
2023-03-26T05:19:48.077Z,72588.41
2023-03-26T05:20:26.517Z,72586.44
2023-03-26T05:20:58.893Z,72580.44
2023-03-26T05:21:32.610Z,72584.44
2023-03-26T05:22:07.841Z,72582.44
2023-03-26T05:22:44.643Z,72582.44
2023-03-26T05:23:45.628Z,72578.44
2023-03-26T05:24:25.087Z,72580.44
2023-03-26T05:24:57.400Z,72574.44
2023-03-26T05:25:32.553Z,72574.44
2023-03-26T05:26:07.822Z,72574.44
2023-03-26T05:26:41.162Z,72566.47
2023-03-26T05:27:17.513Z,72570.47
2023-03-26T05:27:52.550Z,72568.47
2023-03-26T05:28:26.973Z,72566.47
2023-03-26T05:29:09.412Z,72562.47
2023-03-26T05:29:47.277Z,72564.47
2023-03-26T05:30:21.628Z,72564.47
2023-03-26T05:31:01.889Z,72566.47
2023-03-26T05:31:38.823Z,72564.47
2023-03-26T05:32:11.549Z,72562.47
2023-03-26T05:32:49.142Z,72562.47
2023-03-26T05:33:24.796Z,72566.47
2023-03-26T05:34:14.257Z,72562.47
2023-03-26T05:34:46.878Z,72568.47
2023-03-26T05:35:19.840Z,72566.47
2023-03-26T05:36:03.994Z,72562.47
2023-03-26T05:36:38.083Z,72564.47
2023-03-26T05:37:24.787Z,72562.47
2023-03-26T05:38:11.181Z,72566.47
2023-03-26T05:38:47.391Z,72562.47
2023-03-26T05:39:26.584Z,72562.47
2023-03-26T05:40:33.769Z,72562.47
2023-03-26T05:41:10.003Z,72566.47
2023-03-26T05:41:47.912Z,72566.47
2023-03-26T05:42:23.380Z,72566.47
2023-03-26T05:43:21.136Z,72566.47
2023-03-26T05:44:04.638Z,72562.47
2023-03-26T05:44:37.167Z,72562.47
2023-03-26T05:45:22.509Z,72562.47
2023-03-26T05:45:55.069Z,72566.47
2023-03-26T05:46:36.927Z,72564.47
2023-03-26T05:47:09.426Z,72566.47
2023-03-26T05:47:41.962Z,72562.47
2023-03-26T05:48:16.934Z,72562.47
2023-03-26T05:48:49.498Z,72558.47
2023-03-26T05:49:22.184Z,72566.47
2023-03-26T05:49:58.272Z,72562.47
2023-03-26T05:50:31.553Z,72562.47
2023-03-26T05:51:06.861Z,72558.47
2023-03-26T05:51:42.285Z,72556.50
2023-03-26T05:52:35.007Z,72560.47
2023-03-26T05:53:35.483Z,72554.50
2023-03-26T05:54:26.546Z,72558.47
2023-03-26T05:55:18.589Z,72560.47
2023-03-26T05:56:10.240Z,72554.50
2023-03-26T05:56:42.577Z,72554.50
2023-03-26T05:57:22.451Z,72548.50
2023-03-26T05:58:29.765Z,72554.50
2023-03-26T05:59:20.778Z,72554.50
2023-03-26T06:00:28.858Z,72544.50
2023-03-26T06:01:05.891Z,72548.50
2023-03-26T06:02:01.016Z,72550.50
2023-03-26T06:02:39.369Z,72546.50
2023-03-26T06:03:31.726Z,72548.50
2023-03-26T06:04:33.480Z,72538.53
2023-03-26T06:05:27.126Z,72546.50
2023-03-26T06:06:22.164Z,72546.50
2023-03-26T06:07:04.955Z,72546.50
2023-03-26T06:07:37.381Z,72546.50
2023-03-26T06:08:20.788Z,72546.50
2023-03-26T06:09:01.889Z,72552.50
2023-03-26T06:09:38.013Z,72546.50
2023-03-26T06:10:10.893Z,72542.50
2023-03-26T06:11:00.652Z,72542.50
2023-03-26T06:11:37.381Z,72544.50
2023-03-26T06:12:14.117Z,72542.50
2023-03-26T06:12:46.827Z,72546.50
2023-03-26T06:13:19.374Z,72542.50
2023-03-26T06:13:59.285Z,72546.50
2023-03-26T06:14:32.480Z,72542.50
2023-03-26T06:15:21.091Z,72544.50
2023-03-26T06:16:00.000Z,72538.53
2023-03-26T06:16:46.584Z,72534.53
2023-03-26T06:17:23.917Z,72536.53
2023-03-26T06:18:08.314Z,72538.53
2023-03-26T06:19:16.023Z,72532.53
2023-03-26T06:20:02.338Z,72534.53
2023-03-26T06:20:42.334Z,72530.53
2023-03-26T06:21:27.387Z,72528.53
2023-03-26T06:22:05.043Z,72530.53
2023-03-26T06:22:52.148Z,72530.53
2023-03-26T06:23:43.214Z,72534.53
2023-03-26T06:24:38.410Z,72534.53
2023-03-26T06:25:28.845Z,72526.53
2023-03-26T06:26:30.749Z,72530.53
2023-03-26T06:27:23.276Z,72526.53
2023-03-26T06:28:16.695Z,72526.53
2023-03-26T06:29:21.102Z,72526.53
2023-03-26T06:30:15.518Z,72530.53
2023-03-26T06:31:08.204Z,72532.53
2023-03-26T06:31:46.171Z,72528.53
2023-03-26T06:32:37.680Z,72532.53
2023-03-26T06:33:23.469Z,72534.53
2023-03-26T06:33:59.822Z,72536.53
2023-03-26T06:34:32.399Z,72534.53
2023-03-26T06:35:05.520Z,72534.53
2023-03-26T06:35:40.772Z,72530.53
2023-03-26T06:36:13.411Z,72530.53
2023-03-26T06:36:45.843Z,72530.53
2023-03-26T06:37:20.775Z,72532.53
2023-03-26T06:37:55.138Z,72534.53
2023-03-26T06:38:27.910Z,72526.53
2023-03-26T06:39:07.744Z,72530.53
2023-03-26T06:39:41.960Z,72530.53
2023-03-26T06:40:23.959Z,72526.53
2023-03-26T06:41:02.867Z,72528.53
2023-03-26T06:41:46.584Z,72532.53
2023-03-26T06:43:09.173Z,72530.53
2023-03-26T06:43:54.187Z,72530.53
2023-03-26T06:44:47.800Z,72530.53
2023-03-26T06:46:00.754Z,72530.53
2023-03-26T06:47:11.187Z,72526.53
2023-03-26T06:48:09.362Z,72530.53
2023-03-26T06:48:58.651Z,72522.56
2023-03-26T06:49:48.263Z,72526.53
2023-03-26T06:50:40.349Z,72526.53
2023-03-26T06:51:31.320Z,72524.56
2023-03-26T06:52:35.112Z,72526.53
2023-03-26T06:53:20.188Z,72526.53
2023-03-26T06:54:27.757Z,72526.53
2023-03-26T06:55:08.805Z,72522.56
2023-03-26T06:56:09.346Z,72522.56
2023-03-26T06:56:53.368Z,72522.56
2023-03-26T06:57:34.112Z,72518.56
2023-03-26T06:58:31.598Z,72522.56
2023-03-26T06:59:22.595Z,72522.56
2023-03-26T07:00:20.031Z,72518.56
2023-03-26T07:01:11.027Z,72518.56
2023-03-26T07:02:04.403Z,72514.56
2023-03-26T07:03:06.344Z,72510.59
2023-03-26T07:04:00.273Z,72514.56
2023-03-26T07:04:51.119Z,72514.56
2023-03-26T07:05:44.446Z,72512.56
2023-03-26T07:06:35.136Z,72516.56
2023-03-26T07:07:28.709Z,72510.59
2023-03-26T07:08:31.734Z,72510.59
2023-03-26T07:09:38.396Z,72506.59
2023-03-26T07:10:39.541Z,72502.59
2023-03-26T07:11:40.645Z,72502.59
2023-03-26T07:12:31.641Z,72492.63
2023-03-26T07:13:46.119Z,72494.63
2023-03-26T07:14:38.926Z,72494.63
2023-03-26T07:15:38.996Z,72490.63
2023-03-26T07:16:31.659Z,72494.63
2023-03-26T07:17:15.982Z,72490.63
2023-03-26T07:17:59.600Z,72490.63
2023-03-26T07:18:40.116Z,72488.63
2023-03-26T07:19:15.136Z,72490.63
2023-03-26T07:19:48.132Z,72490.63
2023-03-26T07:20:23.283Z,72486.63
2023-03-26T07:20:56.501Z,72488.63
2023-03-26T07:21:30.948Z,72488.63
2023-03-26T07:22:06.677Z,72482.63
2023-03-26T07:23:02.851Z,72486.63
2023-03-26T07:23:54.008Z,72484.63
2023-03-26T07:24:57.324Z,72482.63
2023-03-26T07:25:49.914Z,72478.66
2023-03-26T07:26:51.480Z,72476.66
2023-03-26T07:27:37.747Z,72470.66
2023-03-26T07:28:17.079Z,72474.66
2023-03-26T07:29:11.243Z,72470.66
2023-03-26T07:29:49.262Z,72470.66
2023-03-26T07:30:46.343Z,72470.66
2023-03-26T07:31:44.838Z,72470.66
2023-03-26T07:32:39.985Z,72462.69
2023-03-26T07:33:32.500Z,72458.69
2023-03-26T07:34:35.195Z,72452.69
2023-03-26T07:35:41.852Z,72454.69
2023-03-26T07:36:34.634Z,72450.72
2023-03-26T07:37:40.939Z,72452.69
2023-03-26T07:38:41.519Z,72454.69
2023-03-26T07:39:44.535Z,72444.72
2023-03-26T07:40:44.736Z,72448.72
2023-03-26T07:41:43.316Z,72438.72
2023-03-26T07:42:45.718Z,72438.72
2023-03-26T07:43:59.991Z,72432.75
2023-03-26T07:44:47.327Z,72430.75
2023-03-26T07:45:27.823Z,72428.75
2023-03-26T07:46:29.316Z,72430.75
2023-03-26T07:47:39.097Z,72434.75
2023-03-26T07:48:25.608Z,72434.75
2023-03-26T07:49:09.935Z,72432.75
2023-03-26T07:49:49.526Z,72434.75
2023-03-26T07:50:46.375Z,72434.75
2023-03-26T07:51:49.660Z,72436.72
2023-03-26T07:52:37.697Z,72430.75
2023-03-26T07:53:17.346Z,72434.75
2023-03-26T07:54:04.422Z,72428.75
2023-03-26T07:55:17.537Z,72424.75
2023-03-26T07:56:13.350Z,72422.75
2023-03-26T07:57:35.188Z,72418.78
2023-03-26T07:58:44.517Z,72426.75
2023-03-26T07:59:49.326Z,72424.75